| Date | Time | Temp. (oF) | Dew Point (oF) | Rel. Hum. (%) | Press. (in.) | Wind Dir. | Wind Speed (mph) | Hourly Rainfall (in.) |
|
|---|---|---|---|---|---|---|---|---|---|
| 1 | 09/25 | 00:00 | 52 | 47 | 84 | 30.10 | SSW | 0 | 0.00 |
| 2 | 09/24 | 23:00 | 54 | 46 | 76 | 30.10 | N | 0 | 0.00 |
| 3 | 09/24 | 22:00 | 57 | 46 | 67 | 30.08 | NE | 0 | 0.00 |
| 4 | 09/24 | 21:00 | 60 | 46 | 61 | 30.07 | NE | 0 | 0.00 |
| 5 | 09/24 | 20:00 | 62 | 46 | 58 | 30.04 | NNW | 0 | 0.00 |
| 6 | 09/24 | 19:00 | 66 | 49 | 56 | 30.02 | SSW | 0 | 0.00 |
| 7 | 09/24 | 18:00 | 70 | 55 | 61 | 30.00 | SE | 0 | 0.00 |
| 8 | 09/24 | 17:00 | 72 | 57 | 60 | 29.99 | SE | 0 | 0.00 |
| 9 | 09/24 | 16:00 | 68 | 57 | 69 | 30.01 | ESE | 1 | 0.00 |
| 10 | 09/24 | 15:00 | 67 | 57 | 71 | 30.03 | E | 0 | 0.00 |
| 11 | 09/24 | 14:00 | 67 | 57 | 72 | 30.05 | SSW | 0 | 0.00 |
| 12 | 09/24 | 13:00 | 65 | 56 | 75 | 30.06 | NNE | 4 | 0.00 |
| 13 | 09/24 | 12:00 | 63 | 56 | 79 | 30.06 | ENE | 2 | 0.00 |
| 14 | 09/24 | 11:00 | 64 | 56 | 78 | 30.07 | NNE | 7 | 0.00 |
| 15 | 09/24 | 10:00 | 63 | 57 | 82 | 30.06 | NNE | 3 | 0.00 |
| 16 | 09/24 | 09:00 | 63 | 57 | 82 | 30.04 | NE | 10 | 0.00 |
| 17 | 09/24 | 08:00 | 65 | 59 | 81 | 30.02 | NNE | 11 | 0.00 |
| 18 | 09/24 | 07:00 | 66 | 60 | 83 | 29.98 | NE | 8 | 0.00 |
| 19 | 09/24 | 06:00 | 66 | 61 | 86 | 29.96 | NE | 0 | 0.00 |
| 20 | 09/24 | 05:00 | 65 | 61 | 90 | 29.95 | SSW | 0 | 0.00 |
| 21 | 09/24 | 04:00 | 65 | 61 | 88 | 29.94 | N | 0 | 0.00 |
| 22 | 09/24 | 03:00 | 65 | 61 | 87 | 29.93 | S | 0 | 0.00 |
| 23 | 09/24 | 02:00 | 64 | 60 | 88 | 29.92 | N | 0 | 0.00 |
| 24 | 09/24 | 01:00 | 66 | 61 | 85 | 29.91 | SSW | 0 | 0.00 |